createdAt,value
2023-04-15T00:00:33.082Z,81.56
2023-04-15T00:01:33.172Z,82.02
2023-04-15T00:02:33.229Z,80.83
2023-04-15T00:03:33.354Z,82.44
2023-04-15T00:04:33.129Z,80.59
2023-04-15T00:05:33.029Z,81.60
2023-04-15T00:06:33.035Z,80.85
2023-04-15T00:07:33.048Z,83.09
2023-04-15T00:08:33.054Z,81.24
2023-04-15T00:09:33.063Z,83.39
2023-04-15T00:10:33.032Z,82.11
2023-04-15T00:11:33.051Z,82.28
2023-04-15T00:12:33.013Z,80.71
2023-04-15T00:13:33.009Z,81.20
2023-04-15T00:14:33.166Z,82.27
2023-04-15T00:15:33.166Z,82.01
2023-04-15T00:16:33.061Z,81.58
2023-04-15T00:17:33.046Z,80.80
2023-04-15T00:18:33.028Z,81.18
2023-04-15T00:19:33.006Z,81.42
2023-04-15T00:20:32.937Z,81.52
2023-04-15T00:21:33.002Z,81.67
2023-04-15T00:22:32.908Z,80.21
2023-04-15T00:23:32.932Z,80.29
2023-04-15T00:24:32.988Z,79.38
2023-04-15T00:25:32.896Z,78.65
2023-04-15T00:26:32.905Z,82.91
2023-04-15T00:27:32.898Z,82.52
2023-04-15T00:28:32.896Z,80.14
2023-04-15T00:29:32.906Z,82.24
2023-04-15T00:30:32.937Z,80.40
2023-04-15T00:31:32.914Z,82.39
2023-04-15T00:32:32.910Z,80.63
2023-04-15T00:33:32.869Z,79.91
2023-04-15T00:34:32.896Z,79.65
2023-04-15T00:35:32.895Z,81.19
2023-04-15T00:36:32.846Z,80.58
2023-04-15T00:37:32.844Z,80.59
2023-04-15T00:38:32.842Z,82.33
2023-04-15T00:39:32.816Z,83.08
2023-04-15T00:40:32.785Z,81.65
2023-04-15T00:41:32.825Z,81.64
2023-04-15T00:42:32.850Z,81.37
2023-04-15T00:43:32.826Z,81.76
2023-04-15T00:44:32.815Z,84.02
2023-04-15T00:45:32.817Z,82.03
2023-04-15T00:46:32.758Z,82.66
2023-04-15T00:47:32.775Z,80.84
2023-04-15T00:48:32.819Z,82.33
2023-04-15T00:49:32.796Z,81.35
2023-04-15T00:50:32.793Z,82.07
2023-04-15T00:51:32.728Z,81.04
2023-04-15T00:52:32.710Z,81.27
2023-04-15T00:53:32.812Z,81.50
2023-04-15T00:54:32.756Z,83.09
2023-04-15T00:55:32.699Z,81.60
2023-04-15T00:56:32.658Z,82.35
2023-04-15T00:57:32.678Z,80.66
2023-04-15T00:58:32.688Z,81.90
2023-04-15T00:59:32.706Z,82.18
2023-04-15T01:00:32.646Z,85.06
2023-04-15T01:01:32.688Z,82.08
2023-04-15T01:02:32.889Z,81.62
2023-04-15T01:03:33.525Z,83.86
2023-04-15T01:04:32.735Z,83.35
2023-04-15T01:05:32.695Z,81.67
2023-04-15T01:06:32.700Z,82.64
2023-04-15T01:07:32.647Z,82.00
2023-04-15T01:08:32.629Z,81.35
2023-04-15T01:09:32.666Z,82.75
2023-04-15T01:10:32.589Z,83.64
2023-04-15T01:11:32.578Z,82.45
2023-04-15T01:12:32.566Z,82.73
2023-04-15T01:13:32.584Z,81.81
2023-04-15T01:14:32.647Z,81.81
2023-04-15T01:15:32.614Z,82.48
2023-04-15T01:16:32.634Z,82.92
2023-04-15T01:17:32.575Z,83.24
2023-04-15T01:18:32.538Z,79.99
2023-04-15T01:19:32.613Z,82.28
2023-04-15T01:20:32.522Z,82.31
2023-04-15T01:21:32.533Z,81.91
2023-04-15T01:22:32.560Z,82.17
2023-04-15T01:23:32.543Z,84.41
2023-04-15T01:24:32.561Z,81.99
2023-04-15T01:25:32.565Z,83.57
2023-04-15T01:26:32.517Z,82.06
2023-04-15T01:27:32.579Z,82.66
2023-04-15T01:28:32.602Z,83.33
2023-04-15T01:29:32.546Z,84.34
2023-04-15T01:30:32.552Z,82.31
2023-04-15T01:31:32.581Z,82.94
2023-04-15T01:32:32.977Z,82.41
2023-04-15T01:33:32.572Z,84.01
2023-04-15T01:34:35.061Z,83.19
2023-04-15T01:35:32.540Z,83.39
2023-04-15T01:36:32.522Z,82.43
2023-04-15T01:37:32.539Z,83.79
2023-04-15T01:38:32.520Z,83.78
2023-04-15T01:39:32.472Z,82.08
2023-04-15T01:40:32.517Z,84.21
2023-04-15T01:41:32.531Z,83.70
2023-04-15T01:42:32.480Z,83.44
2023-04-15T01:43:32.491Z,83.42
2023-04-15T01:44:32.476Z,82.89
2023-04-15T01:45:32.498Z,85.24
2023-04-15T01:46:32.450Z,82.79
2023-04-15T01:47:32.512Z,85.56
2023-04-15T01:48:32.468Z,82.49
2023-04-15T01:49:32.475Z,82.71
2023-04-15T01:50:32.420Z,83.76
2023-04-15T01:51:32.430Z,83.46
2023-04-15T01:52:32.439Z,82.99
2023-04-15T01:53:32.381Z,84.80
2023-04-15T01:54:32.403Z,86.23
2023-04-15T01:55:32.391Z,84.44
2023-04-15T01:56:32.376Z,85.33
2023-04-15T01:57:32.437Z,83.10
2023-04-15T01:58:32.449Z,84.64
2023-04-15T01:59:32.382Z,84.23
2023-04-15T02:00:32.334Z,84.87
2023-04-15T02:01:32.441Z,82.49
2023-04-15T02:02:32.446Z,85.00
2023-04-15T02:03:32.420Z,84.74
2023-04-15T02:04:32.312Z,83.70
2023-04-15T02:05:32.332Z,85.27
2023-04-15T02:06:32.325Z,84.42
2023-04-15T02:07:32.273Z,83.74
2023-04-15T02:08:32.296Z,84.20
2023-04-15T02:09:32.315Z,85.29
2023-04-15T02:10:32.383Z,84.09
2023-04-15T02:11:32.273Z,83.65
2023-04-15T02:12:32.275Z,84.61
2023-04-15T02:13:32.239Z,84.96
2023-04-15T02:14:32.280Z,82.36
2023-04-15T02:15:32.214Z,85.24
2023-04-15T02:16:32.286Z,84.61
2023-04-15T02:17:32.293Z,84.34
2023-04-15T02:18:32.210Z,82.10
2023-04-15T02:19:32.198Z,84.50
2023-04-15T02:20:32.903Z,83.57
2023-04-15T02:21:32.230Z,84.32
2023-04-15T02:22:32.187Z,84.69
2023-04-15T02:23:32.202Z,85.49
2023-04-15T02:24:32.150Z,85.36
2023-04-15T02:25:32.145Z,85.15
2023-04-15T02:26:32.176Z,84.75
2023-04-15T02:27:32.130Z,82.33
2023-04-15T02:28:32.129Z,83.35
2023-04-15T02:29:32.127Z,82.95
2023-04-15T02:30:32.149Z,83.83
2023-04-15T02:31:32.261Z,82.72
2023-04-15T02:32:32.169Z,82.79
2023-04-15T02:33:32.117Z,83.88
2023-04-15T02:34:32.234Z,85.36
2023-04-15T02:35:32.140Z,83.03
2023-04-15T02:36:32.061Z,84.69
2023-04-15T02:37:32.088Z,85.89
2023-04-15T02:38:32.068Z,83.58
2023-04-15T02:39:40.904Z,85.39
2023-04-15T02:40:32.052Z,85.84
2023-04-15T02:41:32.060Z,86.46
2023-04-15T02:42:32.086Z,87.31
2023-04-15T02:43:32.020Z,87.38
2023-04-15T02:44:32.028Z,85.69
2023-04-15T02:45:32.027Z,86.95
2023-04-15T02:46:32.110Z,86.63
2023-04-15T02:47:32.039Z,84.24
2023-04-15T02:48:32.004Z,84.61
2023-04-15T02:49:32.003Z,84.87
2023-04-15T02:50:32.034Z,87.69
2023-04-15T02:51:31.989Z,86.96
2023-04-15T02:52:32.109Z,87.41
2023-04-15T02:53:31.985Z,83.65
2023-04-15T02:54:31.958Z,84.13
2023-04-15T02:55:31.958Z,83.39
2023-04-15T02:56:31.908Z,84.50
2023-04-15T02:57:31.976Z,87.60
2023-04-15T02:58:31.920Z,87.05
2023-04-15T02:59:31.950Z,88.82
2023-04-15T03:00:31.993Z,86.00
2023-04-15T03:01:31.983Z,86.06
2023-04-15T03:02:31.996Z,86.62
2023-04-15T03:03:31.993Z,84.37
2023-04-15T03:04:32.056Z,85.80
2023-04-15T03:05:31.857Z,87.57
2023-04-15T03:06:31.943Z,84.43
2023-04-15T03:07:31.838Z,85.95
2023-04-15T03:08:31.828Z,86.40
2023-04-15T03:09:31.840Z,84.37
2023-04-15T03:10:31.843Z,82.58
2023-04-15T03:11:31.846Z,82.33
2023-04-15T03:12:31.802Z,83.86
2023-04-15T03:13:31.782Z,83.39
2023-04-15T03:14:31.826Z,83.76
2023-04-15T03:15:31.836Z,82.98
2023-04-15T03:16:31.769Z,84.25
2023-04-15T03:17:31.827Z,81.42
2023-04-15T03:18:31.790Z,83.77
2023-04-15T03:19:31.848Z,84.49
2023-04-15T03:20:31.841Z,83.50
2023-04-15T03:21:31.771Z,83.99
2023-04-15T03:22:31.777Z,84.13
2023-04-15T03:23:31.726Z,84.69
2023-04-15T03:24:31.725Z,84.02
2023-04-15T03:25:31.741Z,84.99
2023-04-15T03:26:31.744Z,85.92
2023-04-15T03:27:31.703Z,84.12
2023-04-15T03:28:31.708Z,86.15
2023-04-15T03:29:31.722Z,84.40
2023-04-15T03:30:31.692Z,82.88
2023-04-15T03:31:31.711Z,85.00
2023-04-15T03:32:31.710Z,83.64
2023-04-15T03:33:31.696Z,85.06
2023-04-15T03:34:31.649Z,84.32
2023-04-15T03:35:31.671Z,83.51
2023-04-15T03:36:31.919Z,83.53
2023-04-15T03:37:31.612Z,85.73
2023-04-15T03:38:31.624Z,84.04
2023-04-15T03:39:31.642Z,83.14
2023-04-15T03:40:31.651Z,85.96
2023-04-15T03:41:31.638Z,85.39
2023-04-15T03:42:31.663Z,84.74
2023-04-15T03:43:31.608Z,84.64
2023-04-15T03:44:31.622Z,84.91
2023-04-15T03:45:31.579Z,85.03
2023-04-15T03:46:31.598Z,85.18
2023-04-15T03:47:31.603Z,85.98
2023-04-15T03:48:31.949Z,84.06
2023-04-15T03:49:31.559Z,83.71
2023-04-15T03:50:31.565Z,83.03
2023-04-15T03:51:31.588Z,84.53
2023-04-15T03:52:31.523Z,83.37
2023-04-15T03:53:31.525Z,84.57
2023-04-15T03:54:31.529Z,82.82
2023-04-15T03:55:31.532Z,84.17
2023-04-15T03:56:31.559Z,80.22
2023-04-15T03:57:31.636Z,84.13
2023-04-15T03:58:31.509Z,84.56
2023-04-15T03:59:31.520Z,83.50
2023-04-15T04:00:31.498Z,81.81
2023-04-15T04:01:31.501Z,85.37
2023-04-15T04:02:31.643Z,84.75
2023-04-15T04:03:31.525Z,82.82
2023-04-15T04:04:31.603Z,83.37
2023-04-15T04:05:31.453Z,82.34
2023-04-15T04:06:31.460Z,79.12
2023-04-15T04:07:31.415Z,82.44
2023-04-15T04:08:31.425Z,80.11
2023-04-15T04:09:31.529Z,79.40
2023-04-15T04:10:31.481Z,80.41
2023-04-15T04:11:31.387Z,80.48
2023-04-15T04:12:31.396Z,78.75
2023-04-15T04:13:31.372Z,80.14
2023-04-15T04:14:31.370Z,77.87
2023-04-15T04:15:31.386Z,79.40
2023-04-15T04:16:31.382Z,77.07
2023-04-15T04:17:31.401Z,77.03
2023-04-15T04:18:31.335Z,77.16
2023-04-15T04:19:31.340Z,76.01
2023-04-15T04:20:31.308Z,76.74
2023-04-15T04:21:31.465Z,76.43
2023-04-15T04:22:31.303Z,74.80
2023-04-15T04:23:31.316Z,74.79
2023-04-15T04:24:31.312Z,75.48
2023-04-15T04:25:31.286Z,75.13
2023-04-15T04:26:31.287Z,73.35
2023-04-15T04:27:31.276Z,73.60
2023-04-15T04:28:31.303Z,71.88
2023-04-15T04:29:31.299Z,72.77
2023-04-15T04:30:31.358Z,71.96
2023-04-15T04:31:31.380Z,72.30
2023-04-15T04:32:31.396Z,71.89
2023-04-15T04:33:31.740Z,69.54
2023-04-15T04:34:31.754Z,70.37
2023-04-15T04:35:31.499Z,69.07
2023-04-15T04:36:31.448Z,69.03
2023-04-15T04:37:31.513Z,68.44
2023-04-15T04:38:31.531Z,70.56
2023-04-15T04:39:31.521Z,68.77
2023-04-15T04:40:31.584Z,68.18
2023-04-15T04:41:31.544Z,68.16
2023-04-15T04:42:31.560Z,67.78
2023-04-15T04:43:31.566Z,66.36
2023-04-15T04:44:31.611Z,66.29
2023-04-15T04:45:31.638Z,65.58
2023-04-15T04:46:31.692Z,67.13
2023-04-15T04:47:31.692Z,65.56
2023-04-15T04:48:31.689Z,66.24
2023-04-15T04:49:31.684Z,65.13
2023-04-15T04:50:31.723Z,63.29
2023-04-15T04:51:31.787Z,64.50
2023-04-15T04:52:31.769Z,63.70
2023-04-15T04:53:31.790Z,62.51
2023-04-15T04:54:31.773Z,63.03
2023-04-15T04:55:31.770Z,62.32
2023-04-15T04:56:31.845Z,61.65
2023-04-15T04:57:31.856Z,61.87
2023-04-15T04:58:31.864Z,59.85
2023-04-15T04:59:31.917Z,58.69
2023-04-15T05:00:32.046Z,61.30
2023-04-15T05:01:32.079Z,59.10
2023-04-15T05:02:32.175Z,57.57
2023-04-15T05:03:32.176Z,58.09
2023-04-15T05:04:32.081Z,60.43
2023-04-15T05:05:32.117Z,59.19
2023-04-15T05:06:32.123Z,57.77
2023-04-15T05:07:32.178Z,58.44
2023-04-15T05:08:32.186Z,57.68
2023-04-15T05:09:32.259Z,56.92
2023-04-15T05:10:32.244Z,55.30
2023-04-15T05:11:32.246Z,56.92
2023-04-15T05:12:32.462Z,57.69
2023-04-15T05:13:32.322Z,55.00
2023-04-15T05:14:32.392Z,55.80
2023-04-15T05:15:32.417Z,55.47
2023-04-15T05:16:32.403Z,53.77
2023-04-15T05:17:32.486Z,54.61
2023-04-15T05:18:32.464Z,53.54
2023-04-15T05:19:32.529Z,54.61
2023-04-15T05:20:32.522Z,54.20
2023-04-15T05:21:32.545Z,53.09
2023-04-15T05:22:32.590Z,52.25
2023-04-15T05:23:32.607Z,50.85
2023-04-15T05:24:32.675Z,51.39
2023-04-15T05:25:32.658Z,51.53
2023-04-15T05:26:32.675Z,49.58
2023-04-15T05:27:32.732Z,51.72
2023-04-15T05:28:32.883Z,51.34
2023-04-15T05:29:32.745Z,51.32
2023-04-15T05:30:32.810Z,51.85
2023-04-15T05:31:32.863Z,50.03
2023-04-15T05:32:32.886Z,49.08
2023-04-15T05:33:32.818Z,49.51
2023-04-15T05:34:32.881Z,50.84
2023-04-15T05:35:32.884Z,50.73
2023-04-15T05:36:33.038Z,47.97
2023-04-15T05:37:32.943Z,50.89
2023-04-15T05:38:33.001Z,49.62
2023-04-15T05:39:33.006Z,46.26
2023-04-15T05:40:33.999Z,46.02
2023-04-15T05:41:33.120Z,46.92
2023-04-15T05:42:33.500Z,46.97
2023-04-15T05:43:33.142Z,47.40
2023-04-15T05:44:33.369Z,44.94
2023-04-15T05:45:33.207Z,43.57
2023-04-15T05:46:33.232Z,45.27
2023-04-15T05:47:33.532Z,44.10
2023-04-15T05:48:33.281Z,46.37
2023-04-15T05:49:33.347Z,45.36
2023-04-15T05:50:33.324Z,43.89
2023-04-15T05:51:33.398Z,45.28
2023-04-15T05:52:33.415Z,44.81
2023-04-15T05:53:33.432Z,44.68
2023-04-15T05:54:33.417Z,44.65
2023-04-15T05:55:33.479Z,43.47
2023-04-15T05:56:33.490Z,43.73
2023-04-15T05:57:33.642Z,41.94
2023-04-15T05:58:33.556Z,42.91
2023-04-15T06:00:52.633Z,25.00
2023-04-15T06:01:52.742Z,25.00
2023-04-15T06:02:52.677Z,25.00
2023-04-15T06:03:52.825Z,25.00
2023-04-15T06:04:52.689Z,25.00
2023-04-15T06:05:52.589Z,25.22
2023-04-15T06:06:52.658Z,25.00
2023-04-15T06:07:52.617Z,25.34
2023-04-15T06:08:52.586Z,26.38
2023-04-15T06:09:52.549Z,25.00
2023-04-15T06:10:52.574Z,25.85
2023-04-15T06:11:52.680Z,25.40
2023-04-15T06:12:52.855Z,25.07
2023-04-15T06:13:52.651Z,25.87
2023-04-15T06:14:52.656Z,25.56
2023-04-15T06:15:52.577Z,25.68
2023-04-15T06:16:52.676Z,26.82
2023-04-15T06:17:52.738Z,25.55
2023-04-15T06:18:52.695Z,26.72
2023-04-15T06:19:52.689Z,26.76
2023-04-15T06:20:52.746Z,29.89
2023-04-15T06:21:52.717Z,25.91
2023-04-15T06:22:52.767Z,27.58
2023-04-15T06:23:52.775Z,25.11
2023-04-15T06:24:52.826Z,25.94
2023-04-15T06:25:52.828Z,25.02
2023-04-15T06:26:52.872Z,28.29
2023-04-15T06:27:52.844Z,25.72
2023-04-15T06:28:52.900Z,29.95
2023-04-15T06:29:52.897Z,26.82
2023-04-15T06:30:52.910Z,26.77
2023-04-15T06:31:53.144Z,27.39
2023-04-15T06:32:52.986Z,28.08
2023-04-15T06:33:52.963Z,27.95
2023-04-15T06:34:52.996Z,26.05
2023-04-15T06:35:53.004Z,26.19
2023-04-15T06:36:53.069Z,26.93
2023-04-15T06:37:53.072Z,26.54
2023-04-15T06:38:53.071Z,26.33
2023-04-15T06:39:53.088Z,26.61
2023-04-15T06:40:53.135Z,26.94
2023-04-15T06:41:53.158Z,27.67
2023-04-15T06:42:53.158Z,27.36
2023-04-15T06:43:53.223Z,26.30
2023-04-15T06:44:53.207Z,28.91
2023-04-15T06:45:53.252Z,25.63
2023-04-15T06:46:53.209Z,25.00
2023-04-15T06:47:53.441Z,26.24
2023-04-15T06:48:53.251Z,28.88
2023-04-15T06:49:53.226Z,29.20
2023-04-15T06:50:53.336Z,28.63
2023-04-15T06:51:53.316Z,25.00
2023-04-15T06:52:53.317Z,27.43
2023-04-15T06:53:53.397Z,25.08
2023-04-15T06:54:53.335Z,25.45
2023-04-15T06:55:53.342Z,27.63
2023-04-15T06:56:54.508Z,28.19
2023-04-15T06:57:53.368Z,29.91
2023-04-15T06:58:53.394Z,27.19
2023-04-15T06:59:53.440Z,27.62
2023-04-15T07:00:53.836Z,28.34
2023-04-15T07:01:54.362Z,29.38
2023-04-15T07:02:53.466Z,26.93
2023-04-15T07:03:53.472Z,25.89
2023-04-15T07:04:53.457Z,25.85
2023-04-15T07:05:53.558Z,28.30
2023-04-15T07:06:53.479Z,27.78
2023-04-15T07:07:53.529Z,26.37
2023-04-15T07:08:53.503Z,25.00
2023-04-15T07:09:53.552Z,28.48
2023-04-15T07:10:53.555Z,25.00
2023-04-15T07:11:53.549Z,26.67
2023-04-15T07:12:53.559Z,26.60
2023-04-15T07:13:53.565Z,25.54
2023-04-15T07:14:53.601Z,26.63
2023-04-15T07:15:53.643Z,27.35
2023-04-15T07:16:53.642Z,25.76
2023-04-15T07:17:53.616Z,27.28
2023-04-15T07:18:53.593Z,26.97
2023-04-15T07:19:53.603Z,26.37
2023-04-15T07:20:53.613Z,25.41
2023-04-15T07:21:53.651Z,26.17
2023-04-15T07:22:53.635Z,26.58
2023-04-15T07:23:53.643Z,26.31
2023-04-15T07:24:53.657Z,25.66
2023-04-15T07:25:53.655Z,25.63
2023-04-15T07:26:53.611Z,28.76
2023-04-15T07:27:53.617Z,27.35
2023-04-15T07:28:53.603Z,27.29
2023-04-15T07:29:53.642Z,29.04
2023-04-15T07:30:53.687Z,27.73
2023-04-15T07:31:53.642Z,29.49
2023-04-15T07:32:53.691Z,28.38
2023-04-15T07:33:53.638Z,29.41
2023-04-15T07:34:53.707Z,29.27
2023-04-15T07:35:53.663Z,27.80
2023-04-15T07:36:53.699Z,29.83
2023-04-15T07:37:53.652Z,25.75
2023-04-15T07:38:53.702Z,25.84
2023-04-15T07:39:53.679Z,27.74
2023-04-15T07:40:53.817Z,28.88
2023-04-15T07:41:53.703Z,27.74
2023-04-15T07:42:53.828Z,27.06
2023-04-15T07:43:53.748Z,28.08
2023-04-15T07:44:53.741Z,29.31
2023-04-15T07:45:53.729Z,27.26
2023-04-15T07:46:53.750Z,27.45
2023-04-15T07:47:53.730Z,29.21
2023-04-15T07:48:53.710Z,25.00
2023-04-15T07:49:53.708Z,26.16
2023-04-15T07:50:53.824Z,28.07
2023-04-15T07:51:53.701Z,25.84
2023-04-15T07:52:53.730Z,25.49
2023-04-15T07:53:53.702Z,28.65
2023-04-15T07:54:53.698Z,28.06
2023-04-15T07:55:53.709Z,25.00
2023-04-15T07:56:53.771Z,26.28
2023-04-15T07:57:53.729Z,25.33
2023-04-15T07:58:53.734Z,27.36
2023-04-15T07:59:53.744Z,28.46
2023-04-15T08:00:53.732Z,30.35
2023-04-15T08:01:53.788Z,25.97
2023-04-15T08:02:53.803Z,26.56
2023-04-15T08:03:53.810Z,30.16
2023-04-15T08:04:53.850Z,26.73
2023-04-15T08:05:53.690Z,26.04
2023-04-15T08:06:53.759Z,28.65
2023-04-15T08:07:53.827Z,27.28
2023-04-15T08:08:53.742Z,27.24
2023-04-15T08:09:53.698Z,29.50
2023-04-15T08:10:53.716Z,27.80
2023-04-15T08:11:53.695Z,28.00
2023-04-15T08:12:53.725Z,29.28
2023-04-15T08:13:54.343Z,30.11
2023-04-15T08:14:53.700Z,30.21
2023-04-15T08:15:53.753Z,26.11
2023-04-15T08:16:53.724Z,27.63
2023-04-15T08:17:53.806Z,26.32
2023-04-15T08:18:53.777Z,27.62
2023-04-15T08:19:53.732Z,27.88
2023-04-15T08:20:53.683Z,31.65
2023-04-15T08:21:53.693Z,30.26
2023-04-15T08:22:53.757Z,26.16
2023-04-15T08:23:53.702Z,27.81
2023-04-15T08:24:53.750Z,28.09
2023-04-15T08:25:53.753Z,28.54
2023-04-15T08:26:53.762Z,29.85
2023-04-15T08:27:53.818Z,27.93
2023-04-15T08:28:53.794Z,29.73
2023-04-15T08:29:54.029Z,29.82
2023-04-15T08:30:53.863Z,25.00
2023-04-15T08:31:54.022Z,27.03
2023-04-15T08:32:53.952Z,29.88
2023-04-15T08:33:53.905Z,30.41
2023-04-15T08:34:54.064Z,29.97
2023-04-15T08:35:54.034Z,30.37
2023-04-15T08:36:54.046Z,29.84
2023-04-15T08:37:54.093Z,29.28
2023-04-15T08:38:54.186Z,31.44
2023-04-15T08:39:54.164Z,36.46
2023-04-15T08:40:54.234Z,30.98
2023-04-15T08:41:54.271Z,28.70
2023-04-15T08:42:54.390Z,30.27
2023-04-15T08:43:54.332Z,30.16
2023-04-15T08:44:54.385Z,31.10
2023-04-15T08:45:54.463Z,33.11
2023-04-15T08:46:54.557Z,32.11
2023-04-15T08:47:54.569Z,30.35
2023-04-15T08:48:54.631Z,29.07
2023-04-15T08:49:55.469Z,33.68
2023-04-15T08:50:54.712Z,32.83
2023-04-15T08:51:54.749Z,31.92
2023-04-15T08:52:54.858Z,31.11
2023-04-15T08:53:54.919Z,33.65
2023-04-15T08:54:54.928Z,34.62
2023-04-15T08:55:55.085Z,32.23
2023-04-15T08:56:55.150Z,30.73
2023-04-15T08:57:55.041Z,33.73
2023-04-15T08:58:55.260Z,35.64
2023-04-15T08:59:55.194Z,37.26
2023-04-15T09:00:55.264Z,34.80
2023-04-15T09:01:55.286Z,36.82
2023-04-15T09:02:55.376Z,38.60
2023-04-15T09:03:55.536Z,35.84
2023-04-15T09:04:55.432Z,35.68
2023-04-15T09:05:55.390Z,34.75
2023-04-15T09:06:55.394Z,35.39
2023-04-15T09:07:55.506Z,34.31
2023-04-15T09:08:55.605Z,35.13
2023-04-15T09:09:55.592Z,35.83
2023-04-15T09:10:55.662Z,34.39
2023-04-15T09:11:55.702Z,36.58
2023-04-15T09:12:55.771Z,38.43
2023-04-15T09:13:55.827Z,36.57
2023-04-15T09:14:55.939Z,37.26
2023-04-15T09:15:55.984Z,36.30
2023-04-15T09:16:56.085Z,37.49
2023-04-15T09:17:56.130Z,36.24
2023-04-15T09:18:56.167Z,38.71
2023-04-15T09:19:56.210Z,39.66
2023-04-15T09:20:56.236Z,37.54
2023-04-15T09:21:58.684Z,34.20
2023-04-15T09:22:56.297Z,36.65
2023-04-15T09:23:56.288Z,37.04
2023-04-15T09:24:56.303Z,35.83
2023-04-15T09:25:56.283Z,35.89
2023-04-15T09:26:56.272Z,34.80
2023-04-15T09:27:56.278Z,33.38
2023-04-15T09:28:56.289Z,36.65
2023-04-15T09:29:56.223Z,36.75
2023-04-15T09:30:56.272Z,36.68
2023-04-15T09:31:56.250Z,34.64
2023-04-15T09:32:56.341Z,36.74
2023-04-15T09:33:56.239Z,33.52
2023-04-15T09:34:56.269Z,36.35
2023-04-15T09:35:56.228Z,35.26
2023-04-15T09:36:56.232Z,38.01
2023-04-15T09:37:56.932Z,37.27
2023-04-15T09:38:56.327Z,37.35
2023-04-15T09:39:56.211Z,38.53
2023-04-15T09:40:56.211Z,32.81
2023-04-15T09:41:56.164Z,36.32
2023-04-15T09:42:56.389Z,34.23
2023-04-15T09:43:56.172Z,31.53
2023-04-15T09:44:56.185Z,35.32
2023-04-15T09:45:56.154Z,37.78
2023-04-15T09:46:56.091Z,36.22
2023-04-15T09:47:57.112Z,30.35
2023-04-15T09:48:56.128Z,35.35
2023-04-15T09:49:56.185Z,33.14
2023-04-15T09:50:56.132Z,34.56
2023-04-15T09:52:05.043Z,35.95
2023-04-15T09:52:57.354Z,35.99
2023-04-15T09:53:56.164Z,30.82
2023-04-15T09:54:56.229Z,33.02
2023-04-15T09:55:56.162Z,35.46
2023-04-15T09:56:56.173Z,32.23
2023-04-15T09:57:56.168Z,29.57
2023-04-15T09:58:56.122Z,36.08
2023-04-15T09:59:56.129Z,36.12
2023-04-15T10:00:56.175Z,35.44
2023-04-15T10:01:56.237Z,32.49
2023-04-15T10:03:56.488Z,30.64
2023-04-15T10:04:56.384Z,30.36
2023-04-15T10:05:56.408Z,31.33
2023-04-15T10:06:56.494Z,30.71
2023-04-15T10:07:56.557Z,30.47
2023-04-15T10:08:56.615Z,27.36
2023-04-15T10:09:56.678Z,26.09
2023-04-15T10:10:56.709Z,30.90
2023-04-15T10:11:56.727Z,31.96
2023-04-15T10:12:56.756Z,25.49
2023-04-15T10:13:56.873Z,26.37
2023-04-15T10:14:56.903Z,29.44
2023-04-15T10:15:57.109Z,33.98
2023-04-15T10:16:57.029Z,35.45
2023-04-15T10:17:57.168Z,30.15
2023-04-15T10:18:57.114Z,27.81
2023-04-15T10:19:57.143Z,30.44
2023-04-15T10:20:57.271Z,29.74
2023-04-15T10:21:57.308Z,28.62
2023-04-15T10:22:57.316Z,29.35
2023-04-15T10:23:57.348Z,28.72
2023-04-15T10:24:57.378Z,29.81
2023-04-15T10:25:57.442Z,30.54
2023-04-15T10:26:57.486Z,27.51
2023-04-15T10:27:57.557Z,30.96
2023-04-15T10:28:58.466Z,34.91
2023-04-15T10:29:57.642Z,35.32
2023-04-15T10:30:57.721Z,30.21
2023-04-15T10:31:57.780Z,32.23
2023-04-15T10:32:57.820Z,32.76
2023-04-15T10:33:57.857Z,35.86
2023-04-15T10:34:57.913Z,32.73
2023-04-15T10:35:57.918Z,31.84
2023-04-15T10:36:57.979Z,31.57
2023-04-15T10:37:57.992Z,30.46
2023-04-15T10:38:58.108Z,28.99
2023-04-15T10:39:58.263Z,33.42
2023-04-15T10:40:58.201Z,36.02
2023-04-15T10:41:58.190Z,30.85
2023-04-15T10:42:58.245Z,35.06
2023-04-15T10:43:58.314Z,31.38
2023-04-15T10:44:58.313Z,25.63
2023-04-15T10:45:58.412Z,30.00
2023-04-15T10:46:58.568Z,30.98
2023-04-15T10:47:58.446Z,30.17
2023-04-15T10:48:58.469Z,32.55
2023-04-15T10:49:58.525Z,28.77
2023-04-15T10:50:58.567Z,32.69
2023-04-15T10:51:58.565Z,39.23
2023-04-15T10:52:58.656Z,33.57
2023-04-15T10:53:58.687Z,33.91
2023-04-15T10:54:58.713Z,30.61
2023-04-15T10:55:58.732Z,30.97
2023-04-15T10:56:58.799Z,29.17
2023-04-15T10:57:58.833Z,30.56
2023-04-15T10:58:58.848Z,35.10
2023-04-15T10:59:58.919Z,35.23
2023-04-15T11:00:59.116Z,35.87
2023-04-15T11:01:58.993Z,36.07
2023-04-15T11:02:59.200Z,33.04
2023-04-15T11:03:59.103Z,35.15
2023-04-15T11:04:59.133Z,35.59
2023-04-15T11:05:59.103Z,34.61
2023-04-15T11:06:59.169Z,36.30
2023-04-15T11:07:59.226Z,36.60
2023-04-15T11:08:59.319Z,36.32
2023-04-15T11:09:59.314Z,37.30
2023-04-15T11:10:59.301Z,37.17
2023-04-15T11:11:59.389Z,41.26
2023-04-15T11:12:59.447Z,39.56
2023-04-15T11:13:59.454Z,34.93
2023-04-15T11:14:59.430Z,38.92
2023-04-15T11:15:59.667Z,38.14
2023-04-15T11:16:59.549Z,36.54
2023-04-15T11:17:59.696Z,37.76
2023-04-15T11:18:59.597Z,36.93
2023-04-15T11:19:59.629Z,41.93
2023-04-15T11:20:59.694Z,39.41
2023-04-15T11:21:59.683Z,44.74
2023-04-15T11:23:14.400Z,36.80
2023-04-15T11:24:02.294Z,37.03
2023-04-15T11:24:59.697Z,38.24
2023-04-15T11:25:59.687Z,37.45
2023-04-15T11:26:59.712Z,36.50
2023-04-15T11:27:59.664Z,43.63
2023-04-15T11:28:59.715Z,40.50
2023-04-15T11:29:59.779Z,36.45
2023-04-15T11:30:59.681Z,35.61
2023-04-15T11:31:59.694Z,33.99
2023-04-15T11:32:59.892Z,35.88
2023-04-15T11:33:59.983Z,37.16
2023-04-15T11:34:59.812Z,32.37
2023-04-15T11:35:59.610Z,33.04
2023-04-15T11:36:59.684Z,31.29
2023-04-15T11:37:59.565Z,37.75
2023-04-15T11:38:59.591Z,34.07
2023-04-15T11:39:59.687Z,31.82
2023-04-15T11:40:59.619Z,32.87
2023-04-15T11:41:59.565Z,36.46
2023-04-15T11:42:59.569Z,35.69
2023-04-15T11:43:59.565Z,38.43
2023-04-15T11:44:59.634Z,40.59
2023-04-15T11:45:59.618Z,36.76
2023-04-15T11:46:59.655Z,39.79
2023-04-15T11:47:59.554Z,36.54
2023-04-15T11:48:59.487Z,34.52
2023-04-15T11:49:59.482Z,37.29
2023-04-15T11:50:59.504Z,37.44
2023-04-15T11:51:59.479Z,35.87
2023-04-15T11:52:59.502Z,35.17
2023-04-15T11:53:59.473Z,35.83
2023-04-15T11:54:59.518Z,36.40
2023-04-15T11:55:59.487Z,35.99
2023-04-15T11:56:59.425Z,41.61
2023-04-15T11:57:59.455Z,40.42
2023-04-15T11:58:59.474Z,38.60
2023-04-15T11:59:59.435Z,37.15
2023-04-15T12:00:59.428Z,36.28
2023-04-15T12:01:59.497Z,40.23
2023-04-15T12:02:59.693Z,42.87
2023-04-15T12:03:59.642Z,37.48
2023-04-15T12:04:59.461Z,41.57
2023-04-15T12:05:59.412Z,44.30
2023-04-15T12:06:59.434Z,47.83
2023-04-15T12:07:59.386Z,40.91
2023-04-15T12:08:59.397Z,38.11
2023-04-15T12:09:59.397Z,40.78
2023-04-15T12:10:59.350Z,43.39
2023-04-15T12:11:59.357Z,47.57
2023-04-15T12:12:59.351Z,37.98
2023-04-15T12:13:59.312Z,42.12
2023-04-15T12:14:59.357Z,35.72
2023-04-15T12:15:59.360Z,35.05
2023-04-15T12:16:59.409Z,34.96
2023-04-15T12:17:59.382Z,33.90
2023-04-15T12:18:59.304Z,35.87
2023-04-15T12:19:59.289Z,32.06
2023-04-15T12:20:59.270Z,33.80
2023-04-15T12:22:00.509Z,33.28
2023-04-15T12:22:59.219Z,29.66
2023-04-15T12:23:59.269Z,30.37
2023-04-15T12:24:59.281Z,27.74
2023-04-15T12:25:59.237Z,26.84
2023-04-15T12:26:59.235Z,33.97
2023-04-15T12:27:59.260Z,35.26
2023-04-15T12:28:59.189Z,34.54
2023-04-15T12:29:59.230Z,36.33
2023-04-15T12:30:59.191Z,28.82
2023-04-15T12:31:59.322Z,29.50
2023-04-15T12:32:59.210Z,31.97
2023-04-15T12:33:59.195Z,31.02
2023-04-15T12:34:59.190Z,35.58
2023-04-15T12:35:59.214Z,35.30
2023-04-15T12:36:59.268Z,34.07
2023-04-15T12:37:59.184Z,35.38
2023-04-15T12:38:59.194Z,37.96
2023-04-15T12:39:59.114Z,37.35
2023-04-15T12:40:59.144Z,42.76
2023-04-15T12:41:59.148Z,42.20
2023-04-15T12:42:59.220Z,40.18
2023-04-15T12:43:59.226Z,37.10
2023-04-15T12:44:59.222Z,37.97
2023-04-15T12:45:59.242Z,37.70
2023-04-15T12:46:59.376Z,41.79
2023-04-15T12:47:59.338Z,46.38
2023-04-15T12:48:59.356Z,46.16
2023-04-15T12:49:59.481Z,40.61
2023-04-15T12:50:59.368Z,38.82
2023-04-15T12:51:59.374Z,37.87
2023-04-15T12:52:59.599Z,41.02
2023-04-15T12:53:59.504Z,36.58
2023-04-15T12:54:59.510Z,42.81